Time;durP1;ratioP1;P1;durP2;ratioP2;P2;SDS_P1;SDS_P2;PMS_P1;PMS_P2;Temp;Humidity;BMP_temperature;BMP_pressure;BME280_temperature;BME280_humidity;BME280_pressure;Samples;Min_cycle;Max_cycle;Signal;HPM_P1;HPM_P2
2022/07/06 00:00:14;;;;;;;5.30;2.00;;;15.00;99.90;;;;;;5013680;28;20398;-88
2022/07/06 00:02:42;;;;;;;5.75;1.58;;;14.90;99.90;;;;;;4995391;28;20396;-88
2022/07/06 00:05:10;;;;;;;5.47;1.60;;;14.90;99.90;;;;;;4995393;28;20910;-88
2022/07/06 00:07:37;;;;;;;6.80;2.17;;;14.90;99.90;;;;;;4995353;28;20396;-88
2022/07/06 00:10:05;;;;;;;6.28;1.77;;;14.80;99.90;;;;;;4991578;28;20413;-87
2022/07/06 00:12:33;;;;;;;5.20;1.65;;;14.90;99.90;;;;;;5013466;28;20399;-87
2022/07/06 00:15:01;;;;;;;4.87;1.70;;;14.80;99.90;;;;;;5014102;28;20487;-88
2022/07/06 00:17:31;;;;;;;5.43;2.08;;;14.70;99.90;;;;;;5012904;28;20493;-88
2022/07/06 00:19:59;;;;;;;7.20;2.17;;;14.70;99.90;;;;;;5013154;28;20486;-87
2022/07/06 00:22:27;;;;;;;5.07;1.70;;;14.70;99.90;;;;;;5012783;28;20414;-87
2022/07/06 00:24:54;;;;;;;5.47;1.55;;;14.60;99.90;;;;;;5013806;28;20394;-87
2022/07/06 00:27:22;;;;;;;3.63;1.63;;;14.60;99.90;;;;;;5013999;28;20774;-89
2022/07/06 00:29:50;;;;;;;3.90;1.52;;;14.60;99.90;;;;;;5012701;28;20396;-88
2022/07/06 00:32:18;;;;;;;4.30;1.80;;;14.60;99.90;;;;;;5012629;28;20387;-88
2022/07/06 00:34:46;;;;;;;5.00;1.50;;;14.60;99.90;;;;;;5013739;28;20481;-88
2022/07/06 00:37:15;;;;;;;6.10;1.77;;;14.60;99.90;;;;;;5014147;28;20449;-88
2022/07/06 00:39:43;;;;;;;2.97;1.60;;;14.60;99.90;;;;;;4994710;28;20393;-88
2022/07/06 00:42:10;;;;;;;3.70;1.40;;;14.60;99.90;;;;;;5009267;28;20393;-88
2022/07/06 00:44:38;;;;;;;5.80;1.50;;;14.70;99.90;;;;;;4994554;28;20389;-89
2022/07/06 00:47:07;;;;;;;6.53;1.63;;;14.80;99.90;;;;;;5009326;28;20400;-87
2022/07/06 00:52:21;;;;;;;7.35;1.73;;;14.60;99.90;;;;;;5010024;28;20538;-87
2022/07/06 00:54:50;;;;;;;5.97;1.80;;;14.50;99.90;;;;;;4998760;28;20393;-88
2022/07/06 00:57:18;;;;;;;6.40;2.07;;;14.40;99.90;;;;;;4994281;28;20443;-89
2022/07/06 00:59:46;;;;;;;6.70;1.67;;;14.40;99.90;;;;;;5009255;28;20439;-88
2022/07/06 01:02:13;;;;;;;5.40;1.67;;;14.30;99.90;;;;;;5008698;28;20387;-88
2022/07/06 01:04:41;;;;;;;7.03;2.17;;;14.30;99.90;;;;;;5010704;28;20411;-88
2022/07/06 01:07:10;;;;;;;3.53;1.75;;;14.30;99.90;;;;;;5011985;28;20441;-89
2022/07/06 01:09:37;;;;;;;4.82;1.70;;;14.30;99.90;;;;;;5013111;28;20430;-88
2022/07/06 01:12:05;;;;;;;3.28;1.50;;;14.20;99.90;;;;;;5012482;28;20403;-88
2022/07/06 01:14:33;;;;;;;3.50;1.38;;;14.30;99.90;;;;;;4993987;28;20520;-87
2022/07/06 01:17:02;;;;;;;6.55;1.58;;;14.30;99.90;;;;;;4994098;28;20393;-88
2022/07/06 01:19:30;;;;;;;4.85;1.80;;;14.30;99.90;;;;;;4993779;28;20965;-89
2022/07/06 01:21:57;;;;;;;5.68;1.83;;;14.30;99.90;;;;;;4993992;28;20389;-89
2022/07/06 01:24:25;;;;;;;3.92;1.77;;;14.30;99.90;;;;;;5008770;28;20469;-85
2022/07/06 01:26:53;;;;;;;7.05;2.00;;;14.10;99.90;;;;;;4994261;28;20774;-88
2022/07/06 01:29:21;;;;;;;3.72;1.77;;;14.10;99.90;;;;;;5008373;28;20500;-89
2022/07/06 01:31:50;;;;;;;8.32;1.88;;;14.10;99.90;;;;;;4993454;28;20488;-87
2022/07/06 01:34:19;;;;;;;5.13;1.77;;;14.00;99.90;;;;;;4993205;28;20396;-87
2022/07/06 01:36:47;;;;;;;6.03;1.67;;;14.10;99.90;;;;;;4999554;28;20579;-88
2022/07/06 01:39:15;;;;;;;5.57;2.10;;;14.10;99.90;;;;;;4993540;28;20416;-89
2022/07/06 01:41:42;;;;;;;7.20;1.80;;;14.10;99.90;;;;;;4993503;28;20393;-88
2022/07/06 01:44:10;;;;;;;4.00;1.55;;;14.10;99.90;;;;;;4993533;28;20389;-88
2022/07/06 01:46:39;;;;;;;4.95;1.65;;;14.10;99.90;;;;;;5009498;28;20973;-87
2022/07/06 01:49:08;;;;;;;6.70;1.63;;;14.00;99.90;;;;;;5012715;28;20490;-88
2022/07/06 01:51:36;;;;;;;5.40;1.90;;;13.90;99.90;;;;;;5011306;28;20982;-87
2022/07/06 01:54:04;;;;;;;8.75;1.90;;;13.90;99.90;;;;;;5011405;28;20474;-88
2022/07/06 01:56:33;;;;;;;4.00;1.80;;;13.90;99.90;;;;;;5011932;28;20399;-87
2022/07/06 01:59:03;;;;;;;4.93;1.40;;;13.80;99.90;;;;;;5011487;28;20414;-87
2022/07/06 02:01:31;;;;;;;6.68;1.80;;;13.80;99.90;;;;;;5010900;28;20392;-85
2022/07/06 02:03:59;;;;;;;5.82;1.60;;;13.80;99.90;;;;;;5011020;28;20383;-88
2022/07/06 02:06:27;;;;;;;4.85;1.80;;;13.70;99.90;;;;;;5010847;28;20395;-86
2022/07/06 02:08:55;;;;;;;6.18;1.88;;;13.70;99.90;;;;;;4991729;28;20911;-88
2022/07/06 02:11:23;;;;;;;5.55;1.77;;;13.70;99.90;;;;;;4992716;28;20407;-87
2022/07/06 02:13:50;;;;;;;5.63;1.90;;;13.70;99.90;;;;;;5008347;28;20497;-88
2022/07/06 02:16:18;;;;;;;5.65;2.00;;;13.70;99.90;;;;;;5001321;28;20400;-89
2022/07/06 02:18:46;;;;;;;4.72;1.90;;;13.70;99.90;;;;;;5010805;28;20447;-88
2022/07/06 02:21:14;;;;;;;7.88;1.90;;;13.60;99.90;;;;;;5012295;28;20448;-87
2022/07/06 02:23:41;;;;;;;8.50;1.92;;;13.60;99.90;;;;;;5010732;28;20391;-87
2022/07/06 02:26:09;;;;;;;6.13;1.83;;;13.60;99.90;;;;;;4997047;28;20433;-88
2022/07/06 02:28:37;;;;;;;5.60;1.88;;;13.60;99.90;;;;;;5008476;28;20399;-87
2022/07/06 02:31:05;;;;;;;4.05;1.58;;;13.60;99.90;;;;;;5007919;28;20934;-88
2022/07/06 02:33:33;;;;;;;4.93;1.77;;;13.60;99.90;;;;;;5007535;28;20397;-89
2022/07/06 02:36:01;;;;;;;5.47;1.80;;;13.60;99.90;;;;;;4992524;28;20926;-87
2022/07/06 02:38:29;;;;;;;5.43;1.88;;;13.60;99.90;;;;;;5006295;28;20413;-87
2022/07/06 02:40:57;;;;;;;4.72;1.77;;;13.60;99.90;;;;;;5010905;28;20399;-87
2022/07/06 02:43:26;;;;;;;5.65;1.50;;;13.60;99.90;;;;;;5010912;28;20442;-85
2022/07/06 02:45:53;;;;;;;7.37;1.77;;;13.50;99.90;;;;;;4997387;28;20397;-88
2022/07/06 02:48:22;;;;;;;5.15;1.88;;;13.60;99.90;;;;;;4988272;28;20397;-88
2022/07/06 02:50:51;;;;;;;4.47;1.70;;;13.70;99.90;;;;;;5010668;28;20399;-88
2022/07/06 02:53:19;;;;;;;5.53;1.90;;;13.70;99.90;;;;;;4997470;28;20397;-88
2022/07/06 02:55:50;;;;;;;6.60;1.80;;;13.80;99.90;;;;;;4991127;28;20470;-86
2022/07/06 02:58:19;;;;;;;7.30;1.83;;;13.80;99.90;;;;;;4991076;28;20459;-87
2022/07/06 03:00:47;;;;;;;5.63;2.00;;;13.90;99.90;;;;;;4993492;28;20389;-87
2022/07/06 03:03:15;;;;;;;3.30;1.65;;;13.90;99.90;;;;;;5002655;28;20461;-87
2022/07/06 03:05:45;;;;;;;3.95;1.77;;;13.90;99.90;;;;;;5003305;28;20487;-87
2022/07/06 03:08:13;;;;;;;4.72;1.75;;;13.80;99.90;;;;;;5010579;28;20395;-88
2022/07/06 03:10:41;;;;;;;7.67;2.20;;;13.80;99.90;;;;;;5010028;28;21220;-87
2022/07/06 03:13:09;;;;;;;4.80;2.00;;;13.90;99.90;;;;;;5010106;28;20399;-88
2022/07/06 03:15:37;;;;;;;2.95;1.83;;;13.90;99.90;;;;;;5010510;28;20395;-88
2022/07/06 03:18:05;;;;;;;6.85;2.20;;;13.90;99.90;;;;;;5010000;28;20407;-87
2022/07/06 03:20:33;;;;;;;4.23;1.93;;;14.00;99.90;;;;;;4992530;28;20400;-87
2022/07/06 03:23:01;;;;;;;5.57;1.95;;;14.00;99.90;;;;;;4990912;28;20784;-87
2022/07/06 03:25:29;;;;;;;6.53;1.70;;;14.00;99.90;;;;;;4990941;28;20397;-88
2022/07/06 03:27:57;;;;;;;5.18;1.67;;;14.00;99.90;;;;;;5012228;28;20425;-88
2022/07/06 03:30:24;;;;;;;7.18;1.70;;;14.00;99.90;;;;;;4994660;28;20395;-88
2022/07/06 03:32:55;;;;;;;5.68;1.70;;;14.10;99.90;;;;;;4978781;28;20895;-88
2022/07/06 03:35:24;;;;;;;3.47;1.53;;;14.10;99.90;;;;;;4994639;28;20397;-86
2022/07/06 03:37:53;;;;;;;3.30;1.63;;;14.10;99.90;;;;;;4994299;28;20392;-88
2022/07/06 03:40:22;;;;;;;4.93;1.95;;;14.10;99.90;;;;;;4998300;28;20401;-88
2022/07/06 03:42:51;;;;;;;4.00;1.70;;;14.10;99.90;;;;;;5007126;28;20435;-87
2022/07/06 03:45:20;;;;;;;4.53;1.70;;;14.20;99.90;;;;;;4997005;28;20484;-89
2022/07/06 03:47:48;;;;;;;2.95;1.73;;;14.20;99.90;;;;;;5010613;28;20396;-89
2022/07/06 03:50:15;;;;;;;3.63;1.50;;;14.20;99.90;;;;;;5010546;28;20488;-87
2022/07/06 03:52:43;;;;;;;3.80;1.30;;;14.30;99.90;;;;;;5010836;28;20465;-88
2022/07/06 03:55:11;;;;;;;4.70;1.65;;;14.30;99.90;;;;;;4998090;28;20492;-88
2022/07/06 03:57:44;;;;;;;3.63;1.60;;;14.40;99.90;;;;;;5013728;28;20509;-88
2022/07/06 04:00:16;;;;;;;3.35;1.65;;;14.40;99.90;;;;;;5013728;28;20414;-88
2022/07/06 04:02:51;;;;;;;4.85;1.65;;;14.40;99.90;;;;;;5009399;28;20400;-89
2022/07/06 04:05:23;;;;;;;4.82;1.67;;;14.50;99.90;;;;;;5010181;28;20488;-87
2022/07/06 04:07:53;;;;;;;5.10;1.50;;;14.50;99.90;;;;;;4987040;28;20472;-87
2022/07/06 04:10:26;;;;;;;3.55;1.40;;;14.50;99.90;;;;;;5010510;28;20429;-88
2022/07/06 04:12:56;;;;;;;4.82;2.10;;;14.50;99.90;;;;;;5012013;28;20432;-89
2022/07/06 04:15:24;;;;;;;4.85;1.50;;;14.50;99.90;;;;;;5008513;28;20407;-89
2022/07/06 04:17:52;;;;;;;3.58;1.52;;;14.50;99.90;;;;;;5002048;28;20389;-89
2022/07/06 04:20:27;;;;;;;4.40;1.60;;;14.60;99.90;;;;;;5009947;28;20408;-88
2022/07/06 04:22:56;;;;;;;3.70;1.67;;;14.60;99.90;;;;;;5010019;28;20464;-88
2022/07/06 04:25:25;;;;;;;2.63;1.35;;;14.60;99.90;;;;;;4993890;28;20407;-87
2022/07/06 04:27:56;;;;;;;5.22;1.80;;;14.60;99.90;;;;;;5010584;28;20424;-87
2022/07/06 04:30:24;;;;;;;3.83;1.50;;;14.60;99.90;;;;;;5007153;28;20419;-88
2022/07/06 04:32:51;;;;;;;5.28;1.88;;;14.70;99.90;;;;;;5012124;28;20402;-89
2022/07/06 04:35:19;;;;;;;4.80;1.65;;;14.70;99.90;;;;;;4999230;28;20428;-88
2022/07/06 04:37:48;;;;;;;3.80;1.90;;;14.70;99.90;;;;;;5008273;28;20405;-87
2022/07/06 04:40:19;;;;;;;4.47;1.70;;;14.80;99.90;;;;;;5009089;28;20435;-87
2022/07/06 04:42:49;;;;;;;5.47;1.92;;;14.80;99.90;;;;;;4994016;28;20397;-87
2022/07/06 04:45:18;;;;;;;5.07;1.60;;;14.80;99.90;;;;;;4993833;28;20397;-88
2022/07/06 04:47:46;;;;;;;6.30;1.63;;;14.90;99.90;;;;;;5000985;28;20389;-88
2022/07/06 04:50:15;;;;;;;5.80;1.60;;;14.90;99.90;;;;;;5005723;28;20911;-88
2022/07/06 04:52:43;;;;;;;4.15;1.40;;;14.90;99.90;;;;;;4994802;28;20464;-87
2022/07/06 04:55:11;;;;;;;5.53;1.67;;;14.90;99.90;;;;;;5011236;28;20399;-88
2022/07/06 04:57:39;;;;;;;5.93;1.88;;;15.00;99.90;;;;;;5012600;28;20395;-89
2022/07/06 05:00:08;;;;;;;5.15;1.60;;;15.00;99.90;;;;;;5012492;28;21069;-89
2022/07/06 05:02:39;;;;;;;5.57;1.60;;;15.00;99.90;;;;;;5012155;28;20392;-88
2022/07/06 05:05:09;;;;;;;4.07;1.60;;;15.10;99.90;;;;;;5012159;28;20457;-88
2022/07/06 05:07:40;;;;;;;4.07;1.63;;;15.10;99.90;;;;;;5012611;28;20445;-88
2022/07/06 05:10:11;;;;;;;4.70;1.58;;;15.10;99.90;;;;;;5006400;28;20416;-88
2022/07/06 05:12:42;;;;;;;4.30;1.70;;;15.20;99.90;;;;;;5009032;28;21016;-89
2022/07/06 05:15:11;;;;;;;5.55;1.50;;;15.20;99.90;;;;;;4996311;28;20405;-88
2022/07/06 05:17:39;;;;;;;4.57;1.63;;;15.20;99.90;;;;;;4998555;28;20408;-86
2022/07/06 05:20:08;;;;;;;5.82;1.45;;;15.20;99.90;;;;;;4999512;28;20483;-87
2022/07/06 05:22:38;;;;;;;5.47;1.50;;;15.30;99.90;;;;;;4998582;28;20401;-84
2022/07/06 05:25:16;;;;;;;4.47;1.50;;;15.20;99.90;;;;;;5000888;28;20409;-87
2022/07/06 05:27:44;;;;;;;5.45;1.50;;;15.30;99.90;;;;;;5001277;28;20743;-85
2022/07/06 05:30:15;;;;;;;5.53;1.50;;;15.30;99.90;;;;;;5002704;28;20396;-83
2022/07/06 05:32:43;;;;;;;4.53;1.63;;;15.30;99.90;;;;;;5020355;28;20399;-88
2022/07/06 05:35:11;;;;;;;6.45;2.05;;;15.30;99.90;;;;;;5022614;28;20391;-86
2022/07/06 05:38:01;;;;;;;6.00;2.13;;;15.40;99.90;;;;;;5021946;28;20411;-87
2022/07/06 05:40:29;;;;;;;7.18;1.90;;;15.40;99.90;;;;;;5019216;28;20407;-89
2022/07/06 05:42:57;;;;;;;5.90;2.07;;;15.40;99.90;;;;;;5015857;28;20395;-89
2022/07/06 05:45:25;;;;;;;7.07;2.22;;;15.40;99.90;;;;;;5016454;28;20383;-89
2022/07/06 05:50:39;;;;;;;6.88;1.88;;;15.50;99.90;;;;;;5022597;28;20400;-84
2022/07/06 05:53:07;;;;;;;6.93;2.13;;;15.60;99.90;;;;;;5021833;28;20407;-86
2022/07/06 05:55:48;;;;;;;6.15;2.30;;;15.50;99.90;;;;;;5022201;28;20391;-84
2022/07/06 05:58:16;;;;;;;4.68;2.20;;;15.60;99.90;;;;;;5022905;28;20809;-84
2022/07/06 06:00:46;;;;;;;7.20;3.15;;;15.60;99.90;;;;;;5023379;28;20437;-84
2022/07/06 06:03:18;;;;;;;8.70;3.00;;;15.60;99.90;;;;;;5022153;28;20398;-84
2022/07/06 06:05:48;;;;;;;6.82;3.70;;;15.60;99.90;;;;;;5022625;28;20395;-84
2022/07/06 06:08:18;;;;;;;11.23;3.83;;;15.70;99.90;;;;;;5023124;28;20394;-83
2022/07/06 06:10:46;;;;;;;9.60;4.00;;;15.70;99.90;;;;;;5006333;28;20402;-86
2022/07/06 06:13:17;;;;;;;10.20;4.30;;;15.70;99.90;;;;;;5024125;28;20395;-84
2022/07/06 06:15:45;;;;;;;13.23;5.27;;;15.80;99.90;;;;;;5005971;28;20387;-83
2022/07/06 06:18:17;;;;;;;10.10;5.23;;;15.80;99.90;;;;;;5013808;28;20399;-85
2022/07/06 06:20:45;;;;;;;11.05;5.43;;;15.80;99.90;;;;;;5005625;28;20403;-85
2022/07/06 06:23:13;;;;;;;10.68;4.78;;;15.80;99.90;;;;;;5022584;28;20383;-84
2022/07/06 06:25:41;;;;;;;10.20;4.70;;;15.90;99.90;;;;;;5022698;28;20399;-84
2022/07/06 06:28:10;;;;;;;9.15;4.75;;;15.90;99.90;;;;;;5022477;28;20383;-83
2022/07/06 06:30:39;;;;;;;7.38;3.70;;;15.90;99.90;;;;;;5022643;28;20402;-84
2022/07/06 06:33:14;;;;;;;8.93;4.15;;;15.90;99.90;;;;;;5024138;28;20393;-84
2022/07/06 06:35:46;;;;;;;6.45;3.00;;;16.00;99.90;;;;;;5024035;28;20395;-83
2022/07/06 06:38:15;;;;;;;8.32;2.45;;;15.90;99.90;;;;;;5022993;28;20614;-84
2022/07/06 06:40:43;;;;;;;6.82;2.40;;;15.90;99.90;;;;;;5023582;28;20395;-83
2022/07/06 06:43:11;;;;;;;9.93;3.80;;;15.90;99.90;;;;;;5024185;28;20395;-83
2022/07/06 06:46:02;;;;;;;8.30;3.35;;;15.90;99.90;;;;;;5023051;28;20476;-83
2022/07/06 06:48:31;;;;;;;8.73;3.10;;;16.00;99.90;;;;;;5022471;28;20423;-85
2022/07/06 06:50:59;;;;;;;11.07;3.17;;;16.00;99.90;;;;;;5023963;28;20798;-83
2022/07/06 06:53:26;;;;;;;7.73;2.63;;;16.00;99.90;;;;;;5023835;28;20395;-83
2022/07/06 06:55:54;;;;;;;10.15;2.35;;;16.10;99.90;;;;;;5022789;28;20470;-84
2022/07/06 06:58:22;;;;;;;5.07;2.08;;;16.10;99.90;;;;;;5023469;28;20482;-86
2022/07/06 07:00:50;;;;;;;5.47;1.70;;;16.10;99.90;;;;;;5023744;28;20956;-84
2022/07/06 07:03:18;;;;;;;5.25;2.00;;;16.10;99.90;;;;;;5027277;28;20391;-84
2022/07/06 07:05:46;;;;;;;8.37;2.20;;;16.10;99.90;;;;;;5027956;28;20415;-84
2022/07/06 07:08:14;;;;;;;4.20;1.88;;;16.10;99.90;;;;;;5027989;28;20383;-84
2022/07/06 07:10:41;;;;;;;7.87;1.80;;;16.20;99.90;;;;;;5027401;28;20481;-84
2022/07/06 07:13:09;;;;;;;7.15;2.20;;;16.20;99.90;;;;;;5026698;28;20470;-84
2022/07/06 07:15:37;;;;;;;5.93;2.00;;;16.10;99.90;;;;;;5027729;28;20388;-83
2022/07/06 07:18:05;;;;;;;6.53;2.00;;;16.10;99.90;;;;;;5026561;28;20400;-83
2022/07/06 07:20:38;;;;;;;7.80;2.20;;;16.10;99.90;;;;;;5026320;28;20462;-84
2022/07/06 07:23:06;;;;;;;7.63;2.37;;;16.10;99.90;;;;;;5026497;28;20391;-83
2022/07/06 07:25:34;;;;;;;4.97;2.00;;;16.10;99.90;;;;;;5026201;28;20403;-83
2022/07/06 07:28:02;;;;;;;5.40;1.80;;;16.10;99.90;;;;;;5010085;28;20486;-83
2022/07/06 07:30:29;;;;;;;7.28;1.88;;;16.10;99.90;;;;;;5027190;28;20398;-84
2022/07/06 07:33:00;;;;;;;5.23;1.83;;;16.20;99.90;;;;;;5010487;28;20397;-83
2022/07/06 07:35:27;;;;;;;6.85;1.88;;;16.20;99.90;;;;;;5026299;28;20411;-84
2022/07/06 07:37:55;;;;;;;5.10;1.65;;;16.10;99.90;;;;;;5010208;28;20478;-84
2022/07/06 07:40:23;;;;;;;4.38;2.25;;;16.10;99.90;;;;;;5025832;28;20438;-84
2022/07/06 07:42:51;;;;;;;6.03;1.90;;;16.20;99.90;;;;;;5027442;28;20387;-83
2022/07/06 07:45:19;;;;;;;4.25;1.80;;;16.20;99.90;;;;;;5027431;28;20875;-84
2022/07/06 07:47:46;;;;;;;8.32;2.17;;;16.20;99.90;;;;;;5027129;28;20499;-83
2022/07/06 07:50:14;;;;;;;5.65;2.08;;;16.20;99.90;;;;;;5025849;28;20430;-84
2022/07/06 07:52:43;;;;;;;9.32;2.13;;;16.30;99.90;;;;;;5026483;28;20418;-84
2022/07/06 07:55:11;;;;;;;5.30;1.80;;;16.30;99.90;;;;;;5027041;28;20421;-84
2022/07/06 07:57:58;;;;;;;6.78;1.85;;;16.20;99.90;;;;;;5025792;28;20399;-84
2022/07/06 08:00:28;;;;;;;6.53;2.03;;;16.30;99.90;;;;;;5025018;28;20403;-84
2022/07/06 08:02:56;;;;;;;9.65;2.13;;;16.20;99.90;;;;;;5026727;28;20491;-84
2022/07/06 08:05:23;;;;;;;7.45;1.88;;;16.20;99.90;;;;;;5025658;28;20562;-84
2022/07/06 08:07:51;;;;;;;9.32;2.30;;;16.20;99.90;;;;;;5025309;28;20395;-85
2022/07/06 08:10:19;;;;;;;5.65;1.80;;;16.30;99.90;;;;;;5026518;28;20391;-83
2022/07/06 08:12:47;;;;;;;8.03;1.97;;;16.20;99.90;;;;;;5006507;28;20477;-85
2022/07/06 08:15:14;;;;;;;6.82;2.00;;;16.30;99.90;;;;;;5006514;28;20472;-84
2022/07/06 08:17:42;;;;;;;5.95;1.90;;;16.30;99.90;;;;;;5006787;28;20396;-84
2022/07/06 08:20:10;;;;;;;7.27;1.90;;;16.30;99.90;;;;;;5006835;28;20425;-84
2022/07/06 08:22:41;;;;;;;6.63;2.13;;;16.30;99.90;;;;;;5006818;28;20396;-84
2022/07/06 08:25:09;;;;;;;6.50;1.93;;;16.30;99.90;;;;;;5006962;28;20385;-84
2022/07/06 08:27:37;;;;;;;7.87;2.00;;;16.30;99.90;;;;;;5006975;28;20393;-83
2022/07/06 08:30:05;;;;;;;7.70;1.88;;;16.30;99.90;;;;;;5006781;28;20903;-84
2022/07/06 08:32:32;;;;;;;5.45;1.70;;;16.30;99.90;;;;;;5021474;28;20466;-85
2022/07/06 08:35:20;;;;;;;6.68;1.88;;;16.30;99.90;;;;;;5025438;28;20407;-84
2022/07/06 08:37:48;;;;;;;6.43;1.93;;;16.30;99.90;;;;;;5024851;28;20426;-86
2022/07/06 08:40:15;;;;;;;6.90;2.13;;;16.20;99.90;;;;;;5024396;28;20438;-85
2022/07/06 08:42:45;;;;;;;6.90;2.50;;;16.30;99.90;;;;;;5025055;28;20885;-88
2022/07/06 08:45:13;;;;;;;8.83;2.30;;;16.20;99.90;;;;;;5025799;28;20765;-85
2022/07/06 08:47:42;;;;;;;9.20;2.50;;;16.30;99.90;;;;;;5025444;28;20401;-83
2022/07/06 08:50:10;;;;;;;6.90;2.15;;;16.20;99.90;;;;;;5025404;28;20405;-87
2022/07/06 08:52:39;;;;;;;6.03;2.42;;;16.20;99.90;;;;;;5024350;28;20467;-83
2022/07/06 08:55:08;;;;;;;7.78;2.35;;;16.20;99.90;;;;;;5025474;28;20391;-85
2022/07/06 08:57:39;;;;;;;9.02;2.30;;;16.20;99.90;;;;;;5025519;28;20390;-83
2022/07/06 09:00:08;;;;;;;8.40;2.28;;;16.20;99.90;;;;;;5024322;28;20786;-82
2022/07/06 09:02:36;;;;;;;7.50;2.03;;;16.20;99.90;;;;;;5025296;28;20391;-84
2022/07/06 09:05:06;;;;;;;12.25;2.72;;;16.20;99.90;;;;;;5025547;28;20449;-84
2022/07/06 09:07:34;;;;;;;7.45;2.00;;;16.20;99.90;;;;;;5025457;28;20398;-83
2022/07/06 09:10:22;;;;;;;5.60;2.17;;;16.20;99.90;;;;;;5024802;28;20395;-84
2022/07/06 09:12:50;;;;;;;13.10;2.45;;;16.20;99.90;;;;;;5024647;28;20403;-84
2022/07/06 09:15:17;;;;;;;8.05;2.55;;;16.20;99.90;;;;;;5025304;28;20394;-83
2022/07/06 09:17:45;;;;;;;10.32;2.47;;;16.10;99.90;;;;;;5023622;28;20396;-83
2022/07/06 09:20:14;;;;;;;7.27;2.10;;;16.10;99.90;;;;;;5007019;28;20415;-84
2022/07/06 09:22:42;;;;;;;7.53;2.10;;;16.00;99.90;;;;;;5021287;28;20439;-83
2022/07/06 09:25:15;;;;;;;5.90;2.30;;;16.00;99.90;;;;;;5011997;28;20405;-83
2022/07/06 09:27:49;;;;;;;9.40;2.30;;;16.00;99.90;;;;;;5023738;28;20391;-85
2022/07/06 09:30:17;;;;;;;6.97;2.20;;;16.10;99.90;;;;;;5025162;28;20387;-83
2022/07/06 09:32:47;;;;;;;10.80;2.63;;;16.00;99.90;;;;;;5020261;28;20401;-86
2022/07/06 09:35:36;;;;;;;7.70;2.58;;;16.00;99.90;;;;;;5020567;28;20401;-84
2022/07/06 09:38:06;;;;;;;7.95;2.42;;;16.10;99.90;;;;;;5018279;28;20393;-83
2022/07/06 09:40:40;;;;;;;7.22;2.35;;;16.10;99.90;;;;;;5019976;28;20409;-84
2022/07/06 09:43:11;;;;;;;6.77;2.40;;;16.00;99.90;;;;;;5005613;28;20393;-85
2022/07/06 09:45:40;;;;;;;7.30;2.50;;;16.00;99.90;;;;;;5007628;28;20411;-83
2022/07/06 09:48:14;;;;;;;6.07;2.15;;;16.10;99.90;;;;;;5017904;28;20423;-87
2022/07/06 09:50:52;;;;;;;6.20;2.23;;;16.20;99.90;;;;;;5018056;28;20448;-84
2022/07/06 09:53:26;;;;;;;8.70;2.28;;;16.00;99.90;;;;;;5003225;28;20484;-84
2022/07/06 09:55:58;;;;;;;8.68;2.63;;;16.00;99.90;;;;;;5022742;28;20432;-85
2022/07/06 09:58:25;;;;;;;6.17;2.40;;;16.10;99.90;;;;;;5016094;28;20395;-88
2022/07/06 10:01:30;;;;;;;6.30;2.60;;;16.00;99.90;;;;;;5003897;28;20436;-83
2022/07/06 10:03:57;;;;;;;5.82;2.42;;;16.10;99.90;;;;;;5004420;28;20389;-84
2022/07/06 10:06:26;;;;;;;7.35;2.38;;;16.00;99.90;;;;;;5004503;28;20403;-83
2022/07/06 10:08:57;;;;;;;5.53;2.30;;;16.10;99.90;;;;;;5019295;28;20392;-87
2022/07/06 10:11:28;;;;;;;7.63;2.67;;;16.20;99.90;;;;;;4999112;28;20433;-82
2022/07/06 10:13:57;;;;;;;6.15;2.45;;;16.20;99.90;;;;;;5002982;28;20454;-83
2022/07/06 10:16:25;;;;;;;8.00;2.75;;;16.20;99.90;;;;;;5003951;28;20397;-83
2022/07/06 10:18:54;;;;;;;9.02;3.08;;;16.10;99.90;;;;;;5004700;28;20946;-83
2022/07/06 10:21:22;;;;;;;9.75;3.55;;;15.90;99.90;;;;;;5036636;28;20432;-83
2022/07/06 10:23:52;;;;;;;7.57;3.42;;;15.90;99.90;;;;;;5044366;28;20796;-83
2022/07/06 10:26:23;;;;;;;10.07;3.95;;;15.80;99.90;;;;;;5044178;28;20455;-83
2022/07/06 10:28:52;;;;;;;8.15;3.60;;;15.90;99.90;;;;;;5044271;28;20440;-85
2022/07/06 10:31:21;;;;;;;12.35;4.50;;;16.10;99.90;;;;;;5044330;28;20393;-82
2022/07/06 10:33:49;;;;;;;10.82;4.40;;;16.00;99.90;;;;;;5043025;28;20389;-82
2022/07/06 10:36:16;;;;;;;9.65;3.80;;;15.90;99.90;;;;;;5044333;28;20420;-82
2022/07/06 10:38:50;;;;;;;8.30;4.03;;;15.90;99.90;;;;;;5044342;28;20469;-82
2022/07/06 10:41:30;;;;;;;11.60;3.90;;;15.70;99.90;;;;;;5033826;28;20413;-82
2022/07/06 10:44:14;;;;;;;7.23;3.60;;;15.70;99.90;;;;;;5023267;28;20414;-82
2022/07/06 10:46:50;;;;;;;9.65;3.60;;;15.70;99.90;;;;;;5023266;28;20391;-82
2022/07/06 10:49:18;;;;;;;10.43;4.22;;;15.70;99.90;;;;;;5023394;28;20850;-82
2022/07/06 10:52:06;;;;;;;10.10;3.85;;;15.70;99.90;;;;;;5024529;28;20399;-82
2022/07/06 10:54:40;;;;;;;8.50;3.53;;;15.90;99.90;;;;;;5024496;28;20400;-82
2022/07/06 10:57:10;;;;;;;9.55;4.00;;;16.00;99.90;;;;;;5009215;28;20699;-82
2022/07/06 10:59:38;;;;;;;8.75;3.85;;;15.90;99.90;;;;;;5033368;28;20409;-84
2022/07/06 11:02:16;;;;;;;8.77;4.47;;;15.90;99.90;;;;;;5010603;28;20422;-82
2022/07/06 11:04:49;;;;;;;8.70;4.18;;;16.00;99.90;;;;;;5017869;28;20387;-82
2022/07/06 11:07:20;;;;;;;8.43;3.90;;;15.90;99.90;;;;;;5034178;28;20401;-82
2022/07/06 11:09:59;;;;;;;9.05;3.83;;;15.90;99.90;;;;;;5016175;28;20430;-82
2022/07/06 11:12:27;;;;;;;10.75;4.40;;;16.00;99.90;;;;;;5022915;28;20419;-83
2022/07/06 11:14:54;;;;;;;9.82;3.80;;;15.90;99.90;;;;;;5015714;28;20473;-82
2022/07/06 11:17:23;;;;;;;9.17;4.10;;;16.00;99.90;;;;;;5003507;28;20393;-83
2022/07/06 11:20:08;;;;;;;8.88;3.50;;;15.80;99.90;;;;;;5003484;28;20768;-82
2022/07/06 11:22:38;;;;;;;9.82;3.95;;;15.90;99.90;;;;;;5003471;28;20397;-83
2022/07/06 11:25:06;;;;;;;8.57;3.70;;;15.90;99.90;;;;;;4987357;28;20424;-82
2022/07/06 11:27:38;;;;;;;8.60;3.83;;;15.80;99.90;;;;;;5004521;28;20459;-83
2022/07/06 11:30:06;;;;;;;7.07;3.35;;;15.80;99.90;;;;;;5004569;28;21038;-83
2022/07/06 11:32:35;;;;;;;6.63;2.95;;;15.90;99.90;;;;;;5015668;28;20402;-82
2022/07/06 11:35:03;;;;;;;6.68;3.20;;;15.90;99.90;;;;;;5022942;28;20463;-83
2022/07/06 11:37:30;;;;;;;8.52;3.25;;;15.90;99.90;;;;;;5024128;28;20391;-83
2022/07/06 11:40:06;;;;;;;6.75;3.22;;;15.90;99.90;;;;;;5022821;28;20425;-83
2022/07/06 11:42:35;;;;;;;6.80;3.23;;;15.90;99.90;;;;;;5024116;28;20442;-83
2022/07/06 11:45:04;;;;;;;5.40;2.83;;;15.90;99.90;;;;;;5024294;28;20379;-82
2022/07/06 11:47:31;;;;;;;6.38;2.70;;;15.90;99.90;;;;;;5024567;28;20409;-82
2022/07/06 11:49:59;;;;;;;5.33;2.70;;;15.60;99.90;;;;;;5026572;28;20477;-82
2022/07/06 11:52:26;;;;;;;6.57;2.85;;;15.60;99.90;;;;;;5007912;28;20407;-82
2022/07/06 11:55:00;;;;;;;7.35;3.17;;;15.60;99.90;;;;;;5023090;28;20421;-82
2022/07/06 11:57:32;;;;;;;4.73;2.20;;;15.70;99.90;;;;;;5022881;28;20908;-82
2022/07/06 11:59:59;;;;;;;6.00;2.45;;;15.70;99.90;;;;;;5008145;28;20392;-82
2022/07/06 12:02:27;;;;;;;4.07;2.38;;;15.60;99.90;;;;;;5006390;28;20401;-82
2022/07/06 12:04:55;;;;;;;5.83;2.37;;;15.50;99.90;;;;;;5007776;28;20393;-82
2022/07/06 12:07:22;;;;;;;6.10;2.83;;;15.50;99.90;;;;;;5007739;28;20392;-82
2022/07/06 12:09:50;;;;;;;6.33;2.57;;;15.60;99.90;;;;;;5007731;28;20412;-82
2022/07/06 12:12:18;;;;;;;5.38;2.60;;;15.60;99.90;;;;;;5007391;28;20407;-82
2022/07/06 12:14:45;;;;;;;5.45;2.65;;;15.60;99.90;;;;;;5006266;28;20409;-82
2022/07/06 12:17:14;;;;;;;5.27;2.80;;;15.70;99.90;;;;;;5008727;28;20439;-82
2022/07/06 12:19:43;;;;;;;6.20;2.78;;;15.70;99.90;;;;;;5005690;28;20431;-82
2022/07/06 12:22:12;;;;;;;6.93;3.30;;;15.50;99.90;;;;;;5005759;28;20982;-83
2022/07/06 12:24:47;;;;;;;5.80;3.50;;;15.60;99.90;;;;;;5020171;28;20415;-82
2022/07/06 12:27:20;;;;;;;7.75;4.00;;;15.70;99.90;;;;;;5025747;28;20905;-82
2022/07/06 12:29:48;;;;;;;4.85;3.10;;;15.70;99.90;;;;;;5026940;28;20379;-82
2022/07/06 12:32:22;;;;;;;6.20;3.53;;;15.80;99.90;;;;;;5026593;28;20418;-82
2022/07/06 12:35:04;;;;;;;6.95;3.80;;;15.90;99.90;;;;;;5026877;28;20387;-82
2022/07/06 12:37:32;;;;;;;5.83;3.30;;;15.90;99.90;;;;;;5014395;28;20414;-82
2022/07/06 12:40:00;;;;;;;6.75;3.60;;;15.80;99.90;;;;;;5026506;28;20401;-82
2022/07/06 12:42:28;;;;;;;7.57;3.03;;;15.70;99.90;;;;;;5026543;28;20632;-83
2022/07/06 12:44:56;;;;;;;7.00;2.90;;;15.80;99.90;;;;;;5026720;28;20401;-82
2022/07/06 12:47:24;;;;;;;7.72;3.20;;;15.80;99.90;;;;;;5026647;28;20391;-82
2022/07/06 12:50:10;;;;;;;4.78;2.75;;;15.80;99.90;;;;;;5025389;28;20407;-83
2022/07/06 12:52:38;;;;;;;6.50;3.00;;;15.80;99.90;;;;;;5026431;28;20425;-83
2022/07/06 12:55:08;;;;;;;6.32;2.95;;;15.80;99.90;;;;;;5025263;28;20425;-82
2022/07/06 12:57:49;;;;;;;7.93;3.00;;;15.90;99.90;;;;;;5026424;28;20963;-83
2022/07/06 13:00:18;;;;;;;5.00;2.80;;;15.90;99.90;;;;;;5025331;28;20399;-82
2022/07/06 13:02:53;;;;;;;4.70;2.63;;;15.90;99.90;;;;;;5025112;28;20389;-82